Terminal Aerodrome Forecast
Issued by NWS Shreveport, LA

Home | Current Version | Previous Version | Text Only | Print | Product List | Glossary On
Versions: 1 2 3 4 5 6 7 8 9 10 11 12 13 14 15 16
000
FTUS44 KSHV 272340
TAFLFK
TAF
KLFK 272340Z 2800/2824 33010G15KT P6SM SKC
     FM280200 02005KT P6SM SKC
     FM280700 08004KT P6SM SKC
     FM281500 20007KT P6SM FEW250=

USA.gov is the U.S. government's official web portal to all federal, state and local government web resources and services.